sensor_id;sensor_type;location;lat;lon;timestamp;pressure;altitude;pressure_sealevel;temperature;humidity
65832;BME280;52593;42.648;23.332;2023-04-23T00:00:39;94523.53;;;6.64;87.60
65832;BME280;52593;42.648;23.332;2023-04-23T00:03:07;94509.56;;;6.62;86.88
65832;BME280;52593;42.648;23.332;2023-04-23T00:05:37;94498.22;;;6.52;87.50
65832;BME280;52593;42.648;23.332;2023-04-23T00:08:03;94502.19;;;6.48;87.52
65832;BME280;52593;42.648;23.332;2023-04-23T00:10:28;94500.72;;;6.53;87.58
65832;BME280;52593;42.648;23.332;2023-04-23T00:12:54;94500.56;;;6.55;87.11
65832;BME280;52593;42.648;23.332;2023-04-23T00:15:19;94498.03;;;6.45;87.27
65832;BME280;52593;42.648;23.332;2023-04-23T00:17:46;94496.56;;;6.51;86.80
65832;BME280;52593;42.648;23.332;2023-04-23T00:20:12;94500.72;;;6.53;86.16
65832;BME280;52593;42.648;23.332;2023-04-23T00:22:38;94501.22;;;6.57;85.12
65832;BME280;52593;42.648;23.332;2023-04-23T00:25:03;94504.38;;;6.52;85.23
65832;BME280;52593;42.648;23.332;2023-04-23T00:27:29;94503.75;;;6.58;84.73
65832;BME280;52593;42.648;23.332;2023-04-23T00:29:54;94496.56;;;6.51;85.27
65832;BME280;52593;42.648;23.332;2023-04-23T00:32:19;94493.06;;;6.50;84.99
65832;BME280;52593;42.648;23.332;2023-04-23T00:34:46;94492.03;;;6.43;85.22
65832;BME280;52593;42.648;23.332;2023-04-23T00:37:13;94496.69;;;6.41;85.49
65832;BME280;52593;42.648;23.332;2023-04-23T00:39:39;94485.00;;;6.25;86.02
65832;BME280;52593;42.648;23.332;2023-04-23T00:42:05;94493.53;;;6.37;86.09
65832;BME280;52593;42.648;23.332;2023-04-23T00:44:36;94488.78;;;6.23;86.20
65832;BME280;52593;42.648;23.332;2023-04-23T00:47:02;94493.13;;;6.24;85.89
65832;BME280;52593;42.648;23.332;2023-04-23T00:49:28;94495.66;;;6.34;85.68
65832;BME280;52593;42.648;23.332;2023-04-23T00:51:54;94480.66;;;6.24;85.84
65832;BME280;52593;42.648;23.332;2023-04-23T00:54:19;94498.41;;;6.16;86.10
65832;BME280;52593;42.648;23.332;2023-04-23T00:56:47;94505.00;;;6.12;86.77
65832;BME280;52593;42.648;23.332;2023-04-23T00:59:13;94489.34;;;6.00;86.63
65832;BME280;52593;42.648;23.332;2023-04-23T01:01:38;94490.00;;;6.02;86.34
65832;BME280;52593;42.648;23.332;2023-04-23T01:04:05;94500.28;;;5.97;87.05
65832;BME280;52593;42.648;23.332;2023-04-23T01:06:31;94504.13;;;6.03;87.16
65832;BME280;52593;42.648;23.332;2023-04-23T01:08:57;94502.22;;;5.95;86.79
65832;BME280;52593;42.648;23.332;2023-04-23T01:11:22;94505.66;;;5.87;87.24
65832;BME280;52593;42.648;23.332;2023-04-23T01:13:49;94506.84;;;5.93;87.13
65832;BME280;52593;42.648;23.332;2023-04-23T01:16:14;94499.28;;;5.98;86.50
65832;BME280;52593;42.648;23.332;2023-04-23T01:18:40;94491.16;;;5.82;86.89
65832;BME280;52593;42.648;23.332;2023-04-23T01:21:05;94489.13;;;5.76;87.44
65832;BME280;52593;42.648;23.332;2023-04-23T01:23:31;94490.16;;;5.75;87.24
65832;BME280;52593;42.648;23.332;2023-04-23T01:25:57;94501.78;;;5.82;86.95
65832;BME280;52593;42.648;23.332;2023-04-23T01:28:23;94493.13;;;5.71;87.57
65832;BME280;52593;42.648;23.332;2023-04-23T01:30:48;94499.03;;;5.65;88.63
65832;BME280;52593;42.648;23.332;2023-04-23T01:33:15;94495.06;;;5.69;88.15
65832;BME280;52593;42.648;23.332;2023-04-23T01:35:42;94495.69;;;5.63;88.37
65832;BME280;52593;42.648;23.332;2023-04-23T01:38:09;94496.06;;;5.68;88.27
65832;BME280;52593;42.648;23.332;2023-04-23T01:40:36;94512.69;;;5.70;88.47
65832;BME280;52593;42.648;23.332;2023-04-23T01:43:02;94501.84;;;5.64;88.14
65832;BME280;52593;42.648;23.332;2023-04-23T01:45:29;94504.13;;;5.59;88.77
65832;BME280;52593;42.648;23.332;2023-04-23T01:47:55;94496.16;;;5.59;89.22
65832;BME280;52593;42.648;23.332;2023-04-23T01:50:20;94512.81;;;5.69;89.09
65832;BME280;52593;42.648;23.332;2023-04-23T01:52:49;94500.94;;;5.55;89.61
65832;BME280;52593;42.648;23.332;2023-04-23T01:55:14;94514.22;;;5.55;90.08
65832;BME280;52593;42.648;23.332;2023-04-23T01:57:40;94510.75;;;5.54;89.55
65832;BME280;52593;42.648;23.332;2023-04-23T02:00:09;94506.56;;;5.52;89.75
65832;BME280;52593;42.648;23.332;2023-04-23T02:02:36;94518.53;;;5.56;90.12
65832;BME280;52593;42.648;23.332;2023-04-23T02:05:02;94505.28;;;5.38;89.97
65832;BME280;52593;42.648;23.332;2023-04-23T02:07:32;94505.59;;;5.35;90.56
65832;BME280;52593;42.648;23.332;2023-04-23T02:09:57;94513.63;;;5.43;90.61
65832;BME280;52593;42.648;23.332;2023-04-23T02:12:23;94505.13;;;5.40;90.21
65832;BME280;52593;42.648;23.332;2023-04-23T02:14:49;94505.81;;;5.42;90.30
65832;BME280;52593;42.648;23.332;2023-04-23T02:17:15;94507.47;;;5.43;90.45
65832;BME280;52593;42.648;23.332;2023-04-23T02:19:40;94505.81;;;5.42;90.26
65832;BME280;52593;42.648;23.332;2023-04-23T02:22:05;94521.66;;;5.51;90.13
65832;BME280;52593;42.648;23.332;2023-04-23T02:24:31;94513.84;;;5.50;90.08
65832;BME280;52593;42.648;23.332;2023-04-23T02:26:57;94516.41;;;5.42;90.27
65832;BME280;52593;42.648;23.332;2023-04-23T02:29:23;94520.22;;;5.39;90.04
65832;BME280;52593;42.648;23.332;2023-04-23T02:31:48;94517.63;;;5.29;90.12
65832;BME280;52593;42.648;23.332;2023-04-23T02:34:14;94515.28;;;5.26;90.84
65832;BME280;52593;42.648;23.332;2023-04-23T02:36:39;94516.56;;;5.22;90.90
65832;BME280;52593;42.648;23.332;2023-04-23T02:39:04;94512.13;;;5.23;91.23
65832;BME280;52593;42.648;23.332;2023-04-23T02:41:30;94517.31;;;5.14;90.94
65832;BME280;52593;42.648;23.332;2023-04-23T02:43:55;94511.72;;;5.17;91.12
65832;BME280;52593;42.648;23.332;2023-04-23T02:46:21;94512.88;;;5.33;91.15
65832;BME280;52593;42.648;23.332;2023-04-23T02:48:46;94518.41;;;5.40;90.43
65832;BME280;52593;42.648;23.332;2023-04-23T02:51:12;94516.34;;;5.33;90.70
65832;BME280;52593;42.648;23.332;2023-04-23T02:53:38;94519.31;;;5.30;90.80
65832;BME280;52593;42.648;23.332;2023-04-23T02:56:04;94519.63;;;5.27;91.13
65832;BME280;52593;42.648;23.332;2023-04-23T02:58:30;94508.56;;;5.32;90.78
65832;BME280;52593;42.648;23.332;2023-04-23T03:00:56;94525.13;;;5.34;90.75
65832;BME280;52593;42.648;23.332;2023-04-23T03:03:21;94516.34;;;5.15;90.65
65832;BME280;52593;42.648;23.332;2023-04-23T03:05:50;94527.19;;;5.22;91.16
65832;BME280;52593;42.648;23.332;2023-04-23T03:08:16;94522.78;;;5.13;91.38
65832;BME280;52593;42.648;23.332;2023-04-23T03:10:42;94529.63;;;5.15;91.07
65832;BME280;52593;42.648;23.332;2023-04-23T03:13:07;94520.28;;;5.11;90.87
65832;BME280;52593;42.648;23.332;2023-04-23T03:15:33;94515.59;;;5.05;90.91
65832;BME280;52593;42.648;23.332;2023-04-23T03:17:58;94512.97;;;4.77;92.03
65832;BME280;52593;42.648;23.332;2023-04-23T03:20:26;94523.38;;;4.89;93.05
65832;BME280;52593;42.648;23.332;2023-04-23T03:22:51;94526.88;;;4.89;92.85
65832;BME280;52593;42.648;23.332;2023-04-23T03:25:16;94531.34;;;4.89;93.32
65832;BME280;52593;42.648;23.332;2023-04-23T03:27:42;94522.84;;;4.85;93.45
65832;BME280;52593;42.648;23.332;2023-04-23T03:30:09;94535.59;;;4.99;93.23
65832;BME280;52593;42.648;23.332;2023-04-23T03:32:35;94535.59;;;4.99;92.88
65832;BME280;52593;42.648;23.332;2023-04-23T03:35:00;94526.13;;;4.97;92.25
65832;BME280;52593;42.648;23.332;2023-04-23T03:37:26;94545.91;;;5.03;92.17
65832;BME280;52593;42.648;23.332;2023-04-23T03:39:52;94535.19;;;4.94;92.47
65832;BME280;52593;42.648;23.332;2023-04-23T03:42:17;94542.69;;;4.99;92.66
65832;BME280;52593;42.648;23.332;2023-04-23T03:44:42;94541.72;;;5.00;93.07
65832;BME280;52593;42.648;23.332;2023-04-23T03:47:08;94534.91;;;4.97;92.79
65832;BME280;52593;42.648;23.332;2023-04-23T03:49:33;94529.88;;;4.94;93.17
65832;BME280;52593;42.648;23.332;2023-04-23T03:51:58;94530.16;;;5.01;92.71
65832;BME280;52593;42.648;23.332;2023-04-23T03:54:24;94531.94;;;5.00;92.13
65832;BME280;52593;42.648;23.332;2023-04-23T03:56:50;94543.47;;;5.09;92.21
65832;BME280;52593;42.648;23.332;2023-04-23T03:59:16;94548.19;;;5.15;92.43
65832;BME280;52593;42.648;23.332;2023-04-23T04:01:42;94553.63;;;5.14;92.36
65832;BME280;52593;42.648;23.332;2023-04-23T04:04:07;94551.38;;;5.01;92.98
65832;BME280;52593;42.648;23.332;2023-04-23T04:06:33;94536.78;;;5.05;93.42
65832;BME280;52593;42.648;23.332;2023-04-23T04:08:58;94552.88;;;5.22;92.83
65832;BME280;52593;42.648;23.332;2023-04-23T04:11:23;94546.16;;;5.27;92.89
65832;BME280;52593;42.648;23.332;2023-04-23T04:13:49;94547.28;;;5.25;92.16
65832;BME280;52593;42.648;23.332;2023-04-23T04:16:14;94556.63;;;5.29;92.70
65832;BME280;52593;42.648;23.332;2023-04-23T04:18:40;94548.66;;;5.29;92.64
65832;BME280;52593;42.648;23.332;2023-04-23T04:21:06;94563.28;;;5.51;92.03
65832;BME280;52593;42.648;23.332;2023-04-23T04:23:31;94550.25;;;5.58;91.28
65832;BME280;52593;42.648;23.332;2023-04-23T04:25:57;94545.44;;;5.61;90.39
65832;BME280;52593;42.648;23.332;2023-04-23T04:28:23;94546.38;;;5.70;90.08
65832;BME280;52593;42.648;23.332;2023-04-23T04:30:51;94560.19;;;5.82;89.28
65832;BME280;52593;42.648;23.332;2023-04-23T04:33:18;94565.75;;;5.88;89.07
65832;BME280;52593;42.648;23.332;2023-04-23T04:35:44;94558.31;;;5.92;88.16
65832;BME280;52593;42.648;23.332;2023-04-23T04:38:10;94560.44;;;5.88;88.20
65832;BME280;52593;42.648;23.332;2023-04-23T04:40:36;94570.44;;;5.95;87.80
65832;BME280;52593;42.648;23.332;2023-04-23T04:43:01;94570.84;;;6.00;87.73
65832;BME280;52593;42.648;23.332;2023-04-23T04:45:29;94572.66;;;5.99;87.81
65832;BME280;52593;42.648;23.332;2023-04-23T04:47:54;94569.09;;;6.09;87.33
65832;BME280;52593;42.648;23.332;2023-04-23T04:50:20;94563.63;;;6.10;87.18
65832;BME280;52593;42.648;23.332;2023-04-23T04:52:45;94562.78;;;6.10;86.29
65832;BME280;52593;42.648;23.332;2023-04-23T04:55:10;94570.38;;;6.31;86.44
65832;BME280;52593;42.648;23.332;2023-04-23T04:57:36;94565.22;;;6.29;86.55
65832;BME280;52593;42.648;23.332;2023-04-23T05:00:21;94566.25;;;6.36;86.49
65832;BME280;52593;42.648;23.332;2023-04-23T05:02:50;94564.22;;;6.30;87.68
65832;BME280;52593;42.648;23.332;2023-04-23T05:05:17;94576.94;;;6.45;87.82
65832;BME280;52593;42.648;23.332;2023-04-23T05:07:43;94571.28;;;6.48;87.59
65832;BME280;52593;42.648;23.332;2023-04-23T05:10:08;94583.63;;;6.57;87.65
65832;BME280;52593;42.648;23.332;2023-04-23T05:12:34;94569.75;;;6.63;87.87
65832;BME280;52593;42.648;23.332;2023-04-23T05:14:59;94577.09;;;6.77;87.22
65832;BME280;52593;42.648;23.332;2023-04-23T05:17:25;94569.13;;;6.77;87.95
65832;BME280;52593;42.648;23.332;2023-04-23T05:19:50;94575.50;;;6.85;86.63
65832;BME280;52593;42.648;23.332;2023-04-23T05:22:15;94571.13;;;6.75;87.47
65832;BME280;52593;42.648;23.332;2023-04-23T05:24:42;94564.47;;;6.79;87.72
65832;BME280;52593;42.648;23.332;2023-04-23T05:27:08;94567.75;;;7.08;86.40
65832;BME280;52593;42.648;23.332;2023-04-23T05:29:34;94564.44;;;7.14;86.12
65832;BME280;52593;42.648;23.332;2023-04-23T05:31:59;94565.09;;;7.16;85.76
65832;BME280;52593;42.648;23.332;2023-04-23T05:34:24;94563.31;;;7.25;85.18
65832;BME280;52593;42.648;23.332;2023-04-23T05:36:50;94560.00;;;7.31;84.83
65832;BME280;52593;42.648;23.332;2023-04-23T05:39:15;94564.34;;;7.40;84.84
65832;BME280;52593;42.648;23.332;2023-04-23T05:41:41;94560.84;;;7.48;84.54
65832;BME280;52593;42.648;23.332;2023-04-23T05:44:06;94569.50;;;7.50;85.66
65832;BME280;52593;42.648;23.332;2023-04-23T05:46:31;94568.69;;;7.58;85.06
65832;BME280;52593;42.648;23.332;2023-04-23T05:48:57;94571.53;;;7.73;84.11
65832;BME280;52593;42.648;23.332;2023-04-23T05:51:22;94571.03;;;7.77;83.97
65832;BME280;52593;42.648;23.332;2023-04-23T05:53:47;94588.19;;;7.91;83.42
65832;BME280;52593;42.648;23.332;2023-04-23T05:56:13;94595.69;;;7.96;83.63
65832;BME280;52593;42.648;23.332;2023-04-23T05:58:38;94577.88;;;8.04;82.69
65832;BME280;52593;42.648;23.332;2023-04-23T06:01:04;94583.69;;;8.08;81.95
65832;BME280;52593;42.648;23.332;2023-04-23T06:03:29;94596.53;;;8.04;82.84
65832;BME280;52593;42.648;23.332;2023-04-23T06:05:55;94569.72;;;7.98;83.06
65832;BME280;52593;42.648;23.332;2023-04-23T06:08:20;94584.34;;;8.02;83.06
65832;BME280;52593;42.648;23.332;2023-04-23T06:10:46;94590.38;;;8.04;83.10
65832;BME280;52593;42.648;23.332;2023-04-23T06:13:11;94580.53;;;8.04;83.48
65832;BME280;52593;42.648;23.332;2023-04-23T06:15:37;94577.66;;;8.31;81.78
65832;BME280;52593;42.648;23.332;2023-04-23T06:18:02;94586.97;;;8.43;81.18
65832;BME280;52593;42.648;23.332;2023-04-23T06:20:28;94577.66;;;8.39;81.89
65832;BME280;52593;42.648;23.332;2023-04-23T06:22:54;94576.50;;;8.33;82.72
65832;BME280;52593;42.648;23.332;2023-04-23T06:25:19;94575.34;;;8.44;82.17
65832;BME280;52593;42.648;23.332;2023-04-23T06:27:45;94578.16;;;8.59;80.91
65832;BME280;52593;42.648;23.332;2023-04-23T06:30:11;94587.63;;;8.62;80.07
65832;BME280;52593;42.648;23.332;2023-04-23T06:32:36;94583.66;;;8.41;80.69
65832;BME280;52593;42.648;23.332;2023-04-23T06:35:02;94571.19;;;8.33;80.90
65832;BME280;52593;42.648;23.332;2023-04-23T06:37:28;94593.31;;;8.34;81.06
65832;BME280;52593;42.648;23.332;2023-04-23T06:39:56;94586.50;;;8.48;81.45
65832;BME280;52593;42.648;23.332;2023-04-23T06:42:22;94578.00;;;8.52;82.18
65832;BME280;52593;42.648;23.332;2023-04-23T06:44:47;94580.50;;;8.54;81.22
65832;BME280;52593;42.648;23.332;2023-04-23T06:47:13;94575.84;;;8.48;81.25
65832;BME280;52593;42.648;23.332;2023-04-23T06:49:39;94584.16;;;8.61;81.75
65832;BME280;52593;42.648;23.332;2023-04-23T06:52:04;94574.38;;;8.85;80.30
65832;BME280;52593;42.648;23.332;2023-04-23T06:54:30;94574.91;;;8.80;80.44
65832;BME280;52593;42.648;23.332;2023-04-23T06:56:55;94564.66;;;9.00;79.34
65832;BME280;52593;42.648;23.332;2023-04-23T06:59:21;94573.00;;;9.05;79.95
65832;BME280;52593;42.648;23.332;2023-04-23T07:01:47;94573.41;;;9.25;78.78
65832;BME280;52593;42.648;23.332;2023-04-23T07:04:12;94570.94;;;9.47;78.14
65832;BME280;52593;42.648;23.332;2023-04-23T07:06:37;94574.25;;;9.49;77.68
65832;BME280;52593;42.648;23.332;2023-04-23T07:09:03;94572.72;;;9.55;77.36
65832;BME280;52593;42.648;23.332;2023-04-23T07:11:28;94583.00;;;9.66;76.80
65832;BME280;52593;42.648;23.332;2023-04-23T07:13:56;94579.06;;;9.54;77.83
65832;BME280;52593;42.648;23.332;2023-04-23T07:16:22;94578.25;;;9.53;78.01
65832;BME280;52593;42.648;23.332;2023-04-23T07:18:48;94574.09;;;9.74;76.63
65832;BME280;52593;42.648;23.332;2023-04-23T07:21:14;94569.66;;;9.89;76.00
65832;BME280;52593;42.648;23.332;2023-04-23T07:23:39;94573.09;;;9.98;75.84
65832;BME280;52593;42.648;23.332;2023-04-23T07:26:05;94566.38;;;10.02;77.56
65832;BME280;52593;42.648;23.332;2023-04-23T07:28:30;94571.13;;;9.92;77.76
65832;BME280;52593;42.648;23.332;2023-04-23T07:30:57;94569.34;;;10.07;77.73
65832;BME280;52593;42.648;23.332;2023-04-23T07:33:22;94560.72;;;10.20;76.18
65832;BME280;52593;42.648;23.332;2023-04-23T07:35:48;94578.88;;;10.48;75.42
65832;BME280;52593;42.648;23.332;2023-04-23T07:38:14;94561.19;;;10.62;74.29
65832;BME280;52593;42.648;23.332;2023-04-23T07:40:39;94565.97;;;10.66;73.30
65832;BME280;52593;42.648;23.332;2023-04-23T07:43:04;94562.19;;;10.61;74.44
65832;BME280;52593;42.648;23.332;2023-04-23T07:45:30;94566.53;;;10.62;74.63
65832;BME280;52593;42.648;23.332;2023-04-23T07:47:55;94568.19;;;10.78;73.80
65832;BME280;52593;42.648;23.332;2023-04-23T07:50:21;94563.84;;;11.06;72.68
65832;BME280;52593;42.648;23.332;2023-04-23T07:52:46;94561.44;;;11.12;71.34
65832;BME280;52593;42.648;23.332;2023-04-23T07:55:11;94559.59;;;11.12;70.64
65832;BME280;52593;42.648;23.332;2023-04-23T07:57:37;94553.88;;;11.15;70.96
65832;BME280;52593;42.648;23.332;2023-04-23T08:00:03;94560.47;;;11.34;69.81
65832;BME280;52593;42.648;23.332;2023-04-23T08:02:29;94557.78;;;11.49;70.45
65832;BME280;52593;42.648;23.332;2023-04-23T08:04:54;94549.16;;;11.54;69.94
65832;BME280;52593;42.648;23.332;2023-04-23T08:07:20;94554.41;;;11.84;68.82
65832;BME280;52593;42.648;23.332;2023-04-23T08:09:45;94558.16;;;12.04;67.55
65832;BME280;52593;42.648;23.332;2023-04-23T08:12:11;94555.53;;;12.11;66.90
65832;BME280;52593;42.648;23.332;2023-04-23T08:14:36;94554.75;;;12.17;67.50
65832;BME280;52593;42.648;23.332;2023-04-23T08:17:02;94558.72;;;12.21;66.08
65832;BME280;52593;42.648;23.332;2023-04-23T08:19:27;94554.56;;;12.19;67.55
65832;BME280;52593;42.648;23.332;2023-04-23T08:21:56;94556.03;;;12.49;66.57
65832;BME280;52593;42.648;23.332;2023-04-23T08:24:21;94547.84;;;12.58;64.09
65832;BME280;52593;42.648;23.332;2023-04-23T08:26:46;94548.47;;;12.60;64.49
65832;BME280;52593;42.648;23.332;2023-04-23T08:29:12;94553.25;;;12.64;63.27
65832;BME280;52593;42.648;23.332;2023-04-23T08:31:38;94538.00;;;12.65;63.07
65832;BME280;52593;42.648;23.332;2023-04-23T08:34:03;94535.47;;;12.92;62.20
65832;BME280;52593;42.648;23.332;2023-04-23T08:36:28;94547.63;;;12.88;63.80
65832;BME280;52593;42.648;23.332;2023-04-23T08:38:54;94543.56;;;12.35;63.78
65832;BME280;52593;42.648;23.332;2023-04-23T08:41:22;94543.06;;;12.53;63.16
65832;BME280;52593;42.648;23.332;2023-04-23T08:44:17;94535.53;;;12.63;62.99
65832;BME280;52593;42.648;23.332;2023-04-23T08:46:44;94529.72;;;13.01;61.32
65832;BME280;52593;42.648;23.332;2023-04-23T08:49:17;94523.19;;;13.17;59.56
65832;BME280;52593;42.648;23.332;2023-04-23T08:51:52;94531.22;;;13.52;60.06
65832;BME280;52593;42.648;23.332;2023-04-23T08:54:21;94517.38;;;13.55;59.64
65832;BME280;52593;42.648;23.332;2023-04-23T08:56:48;94531.09;;;13.87;58.05
65832;BME280;52593;42.648;23.332;2023-04-23T08:59:15;94521.59;;;13.98;58.09
65832;BME280;52593;42.648;23.332;2023-04-23T09:01:42;94520.56;;;14.06;58.15
65832;BME280;52593;42.648;23.332;2023-04-23T09:04:08;94514.53;;;14.24;56.39
65832;BME280;52593;42.648;23.332;2023-04-23T09:06:35;94512.69;;;14.58;55.15
65832;BME280;52593;42.648;23.332;2023-04-23T09:09:01;94518.69;;;14.60;54.27
65832;BME280;52593;42.648;23.332;2023-04-23T09:11:27;94520.78;;;14.24;57.29
65832;BME280;52593;42.648;23.332;2023-04-23T09:13:55;94520.16;;;14.36;56.59
65832;BME280;52593;42.648;23.332;2023-04-23T09:16:21;94506.03;;;14.80;53.16
65832;BME280;52593;42.648;23.332;2023-04-23T09:18:46;94509.97;;;14.85;53.98
65832;BME280;52593;42.648;23.332;2023-04-23T09:21:12;94515.09;;;15.06;54.28
65832;BME280;52593;42.648;23.332;2023-04-23T09:23:38;94514.47;;;15.04;51.76
65832;BME280;52593;42.648;23.332;2023-04-23T09:26:05;94517.06;;;14.66;53.15
65832;BME280;52593;42.648;23.332;2023-04-23T09:28:35;94500.88;;;14.39;55.86
65832;BME280;52593;42.648;23.332;2023-04-23T09:31:01;94499.22;;;14.78;54.16
65832;BME280;52593;42.648;23.332;2023-04-23T09:33:27;94489.44;;;14.90;51.52
65832;BME280;52593;42.648;23.332;2023-04-23T09:35:53;94488.03;;;14.81;52.69
65832;BME280;52593;42.648;23.332;2023-04-23T09:38:19;94503.38;;;14.27;53.44
65832;BME280;52593;42.648;23.332;2023-04-23T09:40:44;94483.50;;;14.55;52.81
65832;BME280;52593;42.648;23.332;2023-04-23T09:43:10;94490.00;;;15.06;51.29
65832;BME280;52593;42.648;23.332;2023-04-23T09:45:35;94490.09;;;15.38;52.45
65832;BME280;52593;42.648;23.332;2023-04-23T09:48:01;94478.41;;;15.50;50.34
65832;BME280;52593;42.648;23.332;2023-04-23T09:50:36;94487.19;;;15.39;52.03
65832;BME280;52593;42.648;23.332;2023-04-23T09:53:04;94481.38;;;15.74;49.06
65832;BME280;52593;42.648;23.332;2023-04-23T09:55:38;94477.22;;;15.85;51.18
65832;BME280;52593;42.648;23.332;2023-04-23T09:58:10;94471.31;;;15.56;49.98
65832;BME280;52593;42.648;23.332;2023-04-23T10:00:37;94483.09;;;15.68;52.10
65832;BME280;52593;42.648;23.332;2023-04-23T10:03:03;94470.94;;;16.16;54.06
65832;BME280;52593;42.648;23.332;2023-04-23T10:05:30;94469.03;;;16.23;47.62
65832;BME280;52593;42.648;23.332;2023-04-23T10:07:56;94468.63;;;16.20;46.41
65832;BME280;52593;42.648;23.332;2023-04-23T10:10:22;94459.53;;;16.39;45.75
65832;BME280;52593;42.648;23.332;2023-04-23T10:12:51;94454.94;;;16.40;45.81
65832;BME280;52593;42.648;23.332;2023-04-23T10:15:17;94454.22;;;16.51;45.40
65832;BME280;52593;42.648;23.332;2023-04-23T10:17:43;94453.00;;;16.47;48.12
65832;BME280;52593;42.648;23.332;2023-04-23T10:20:10;94451.69;;;16.75;44.84
65832;BME280;52593;42.648;23.332;2023-04-23T10:22:38;94445.34;;;17.55;48.34
65832;BME280;52593;42.648;23.332;2023-04-23T10:25:09;94442.63;;;17.25;43.00
65832;BME280;52593;42.648;23.332;2023-04-23T10:27:40;94439.44;;;17.46;42.70
65832;BME280;52593;42.648;23.332;2023-04-23T10:30:09;94429.41;;;17.47;42.02
65832;BME280;52593;42.648;23.332;2023-04-23T10:32:35;94424.44;;;17.32;42.65
65832;BME280;52593;42.648;23.332;2023-04-23T10:35:00;94430.91;;;17.31;42.50
65832;BME280;52593;42.648;23.332;2023-04-23T10:37:26;94415.84;;;16.68;42.50
65832;BME280;52593;42.648;23.332;2023-04-23T10:39:54;94423.41;;;16.77;41.57
65832;BME280;52593;42.648;23.332;2023-04-23T10:42:21;94410.13;;;16.76;42.51
65832;BME280;52593;42.648;23.332;2023-04-23T10:44:47;94425.53;;;17.13;45.52
65832;BME280;52593;42.648;23.332;2023-04-23T10:47:14;94419.00;;;17.51;44.29
65832;BME280;52593;42.648;23.332;2023-04-23T10:49:41;94413.38;;;17.64;41.26
65832;BME280;52593;42.648;23.332;2023-04-23T10:52:09;94397.72;;;17.96;41.89
65832;BME280;52593;42.648;23.332;2023-04-23T10:54:35;94394.94;;;17.73;40.92
65832;BME280;52593;42.648;23.332;2023-04-23T10:57:05;94409.22;;;17.50;40.17
65832;BME280;52593;42.648;23.332;2023-04-23T10:59:35;94408.16;;;17.51;40.78
65832;BME280;52593;42.648;23.332;2023-04-23T11:02:10;94394.06;;;17.60;39.49
65832;BME280;52593;42.648;23.332;2023-04-23T11:04:41;94394.22;;;17.77;38.34
65832;BME280;52593;42.648;23.332;2023-04-23T11:07:08;94394.81;;;17.68;38.85
65832;BME280;52593;42.648;23.332;2023-04-23T11:12:09;94375.19;;;17.84;40.57
65832;BME280;52593;42.648;23.332;2023-04-23T11:14:55;94383.25;;;18.26;39.06
65832;BME280;52593;42.648;23.332;2023-04-23T11:20:10;94378.53;;;17.98;36.90
65832;BME280;52593;42.648;23.332;2023-04-23T11:22:39;94383.34;;;18.67;35.63
65832;BME280;52593;42.648;23.332;2023-04-23T11:25:12;94374.16;;;18.68;37.83
65832;BME280;52593;42.648;23.332;2023-04-23T11:27:42;94364.09;;;18.80;37.29
65832;BME280;52593;42.648;23.332;2023-04-23T11:30:13;94355.31;;;18.73;35.79
65832;BME280;52593;42.648;23.332;2023-04-23T11:32:39;94346.09;;;18.74;35.78
65832;BME280;52593;42.648;23.332;2023-04-23T11:35:06;94355.31;;;18.73;36.53
65832;BME280;52593;42.648;23.332;2023-04-23T11:37:31;94364.59;;;18.89;38.01
65832;BME280;52593;42.648;23.332;2023-04-23T11:40:04;94354.63;;;19.06;37.42
65832;BME280;52593;42.648;23.332;2023-04-23T11:42:40;94355.59;;;19.00;36.58
65832;BME280;52593;42.648;23.332;2023-04-23T11:45:14;94347.28;;;18.90;35.63
65832;BME280;52593;42.648;23.332;2023-04-23T11:47:39;94346.03;;;19.55;36.01
65832;BME280;52593;42.648;23.332;2023-04-23T11:50:05;94350.31;;;19.80;33.93
65832;BME280;52593;42.648;23.332;2023-04-23T11:52:31;94344.28;;;19.95;31.81
65832;BME280;52593;42.648;23.332;2023-04-23T11:55:02;94333.78;;;19.36;33.52
65832;BME280;52593;42.648;23.332;2023-04-23T11:57:28;94327.69;;;19.46;32.80
65832;BME280;52593;42.648;23.332;2023-04-23T11:59:54;94323.63;;;19.14;33.00
65832;BME280;52593;42.648;23.332;2023-04-23T12:02:22;94328.84;;;19.04;32.96
65832;BME280;52593;42.648;23.332;2023-04-23T12:04:48;94324.78;;;18.66;32.13
65832;BME280;52593;42.648;23.332;2023-04-23T12:07:13;94312.16;;;19.12;31.49
65832;BME280;52593;42.648;23.332;2023-04-23T12:09:39;94318.97;;;19.27;33.46
65832;BME280;52593;42.648;23.332;2023-04-23T12:12:04;94316.63;;;19.64;33.28
65832;BME280;52593;42.648;23.332;2023-04-23T12:14:30;94328.22;;;19.59;31.28
65832;BME280;52593;42.648;23.332;2023-04-23T12:16:58;94319.28;;;20.10;29.98
65832;BME280;52593;42.648;23.332;2023-04-23T12:19:33;94314.91;;;19.92;28.93
65832;BME280;52593;42.648;23.332;2023-04-23T12:22:00;94321.75;;;19.94;30.05
65832;BME280;52593;42.648;23.332;2023-04-23T12:24:29;94316.78;;;19.57;33.40
65832;BME280;52593;42.648;23.332;2023-04-23T12:26:58;94301.63;;;19.61;31.29
65832;BME280;52593;42.648;23.332;2023-04-23T12:29:25;94306.44;;;19.71;32.15
65832;BME280;52593;42.648;23.332;2023-04-23T12:31:52;94309.28;;;19.65;30.48
65832;BME280;52593;42.648;23.332;2023-04-23T12:34:20;94301.59;;;18.70;30.91
65832;BME280;52593;42.648;23.332;2023-04-23T12:36:51;94315.06;;;18.41;31.45
65832;BME280;52593;42.648;23.332;2023-04-23T12:39:31;94301.38;;;18.60;32.04
65832;BME280;52593;42.648;23.332;2023-04-23T12:42:03;94304.72;;;18.14;31.63
65832;BME280;52593;42.648;23.332;2023-04-23T12:44:33;94303.06;;;17.78;33.12
65832;BME280;52593;42.648;23.332;2023-04-23T12:47:01;94305.56;;;18.03;32.82
65832;BME280;52593;42.648;23.332;2023-04-23T12:49:32;94309.44;;;18.07;33.95
65832;BME280;52593;42.648;23.332;2023-04-23T12:51:58;94301.19;;;18.02;33.43
65832;BME280;52593;42.648;23.332;2023-04-23T12:54:31;94307.06;;;17.75;34.12
65832;BME280;52593;42.648;23.332;2023-04-23T12:56:58;94304.44;;;17.57;33.96